sensor_id;sensor_type;location;lat;lon;timestamp;P1;durP1;ratioP1;P2;durP2;ratioP2
77798;SDS011;66989;50.426;15.352;2023-03-01T00:00:54;19.05;;;10.02;;
77798;SDS011;66989;50.426;15.352;2023-03-01T00:03:26;21.75;;;11.48;;
77798;SDS011;66989;50.426;15.352;2023-03-01T00:05:51;21.27;;;11.15;;
77798;SDS011;66989;50.426;15.352;2023-03-01T00:08:16;19.83;;;10.20;;
77798;SDS011;66989;50.426;15.352;2023-03-01T00:10:42;22.92;;;11.75;;
77798;SDS011;66989;50.426;15.352;2023-03-01T00:13:07;18.40;;;9.02;;
77798;SDS011;66989;50.426;15.352;2023-03-01T00:15:33;25.40;;;12.18;;
77798;SDS011;66989;50.426;15.352;2023-03-01T00:18:02;26.17;;;13.05;;
77798;SDS011;66989;50.426;15.352;2023-03-01T00:20:27;23.30;;;10.77;;
77798;SDS011;66989;50.426;15.352;2023-03-01T00:22:53;19.33;;;10.18;;
77798;SDS011;66989;50.426;15.352;2023-03-01T00:25:18;18.15;;;7.70;;
77798;SDS011;66989;50.426;15.352;2023-03-01T00:27:43;24.63;;;10.43;;
77798;SDS011;66989;50.426;15.352;2023-03-01T00:30:09;18.43;;;9.33;;
77798;SDS011;66989;50.426;15.352;2023-03-01T00:32:35;21.50;;;10.35;;
77798;SDS011;66989;50.426;15.352;2023-03-01T00:35:00;19.57;;;11.13;;
77798;SDS011;66989;50.426;15.352;2023-03-01T00:37:26;17.25;;;9.20;;
77798;SDS011;66989;50.426;15.352;2023-03-01T00:39:51;14.40;;;8.30;;
77798;SDS011;66989;50.426;15.352;2023-03-01T00:42:16;17.45;;;9.68;;
77798;SDS011;66989;50.426;15.352;2023-03-01T00:44:42;16.48;;;10.23;;
77798;SDS011;66989;50.426;15.352;2023-03-01T00:47:07;16.50;;;8.40;;
77798;SDS011;66989;50.426;15.352;2023-03-01T00:49:33;16.15;;;10.05;;
77798;SDS011;66989;50.426;15.352;2023-03-01T00:51:59;20.98;;;8.48;;
77798;SDS011;66989;50.426;15.352;2023-03-01T00:54:24;18.17;;;7.53;;
77798;SDS011;66989;50.426;15.352;2023-03-01T00:56:50;23.30;;;10.20;;
77798;SDS011;66989;50.426;15.352;2023-03-01T00:59:15;21.15;;;10.05;;
77798;SDS011;66989;50.426;15.352;2023-03-01T01:01:41;19.50;;;8.73;;
77798;SDS011;66989;50.426;15.352;2023-03-01T01:04:07;18.77;;;9.93;;
77798;SDS011;66989;50.426;15.352;2023-03-01T01:06:36;21.33;;;9.75;;
77798;SDS011;66989;50.426;15.352;2023-03-01T01:09:07;16.80;;;8.65;;
77798;SDS011;66989;50.426;15.352;2023-03-01T01:11:42;19.90;;;9.93;;
77798;SDS011;66989;50.426;15.352;2023-03-01T01:14:08;19.20;;;10.25;;
77798;SDS011;66989;50.426;15.352;2023-03-01T01:16:35;21.07;;;11.07;;
77798;SDS011;66989;50.426;15.352;2023-03-01T01:19:00;19.35;;;9.73;;
77798;SDS011;66989;50.426;15.352;2023-03-01T01:21:26;19.23;;;9.75;;
77798;SDS011;66989;50.426;15.352;2023-03-01T01:23:52;21.48;;;11.60;;
77798;SDS011;66989;50.426;15.352;2023-03-01T01:26:22;23.35;;;12.93;;
77798;SDS011;66989;50.426;15.352;2023-03-01T01:28:49;17.40;;;9.23;;
77798;SDS011;66989;50.426;15.352;2023-03-01T01:31:15;23.77;;;11.70;;
77798;SDS011;66989;50.426;15.352;2023-03-01T01:33:43;20.52;;;11.18;;
77798;SDS011;66989;50.426;15.352;2023-03-01T01:36:08;20.98;;;13.20;;
77798;SDS011;66989;50.426;15.352;2023-03-01T01:38:35;19.90;;;9.68;;
77798;SDS011;66989;50.426;15.352;2023-03-01T01:41:02;19.45;;;10.65;;
77798;SDS011;66989;50.426;15.352;2023-03-01T01:43:28;15.20;;;8.63;;
77798;SDS011;66989;50.426;15.352;2023-03-01T01:45:59;14.13;;;7.82;;
77798;SDS011;66989;50.426;15.352;2023-03-01T01:51:24;20.52;;;9.13;;
77798;SDS011;66989;50.426;15.352;2023-03-01T01:53:54;21.63;;;10.50;;
77798;SDS011;66989;50.426;15.352;2023-03-01T01:56:24;27.98;;;12.00;;
77798;SDS011;66989;50.426;15.352;2023-03-01T01:58:51;19.80;;;10.77;;
77798;SDS011;66989;50.426;15.352;2023-03-01T02:01:18;17.35;;;8.57;;
77798;SDS011;66989;50.426;15.352;2023-03-01T02:03:44;19.92;;;10.20;;
77798;SDS011;66989;50.426;15.352;2023-03-01T02:06:12;22.00;;;10.80;;
77798;SDS011;66989;50.426;15.352;2023-03-01T02:08:44;18.10;;;11.02;;
77798;SDS011;66989;50.426;15.352;2023-03-01T02:11:12;20.88;;;11.63;;
77798;SDS011;66989;50.426;15.352;2023-03-01T02:13:39;18.25;;;9.98;;
77798;SDS011;66989;50.426;15.352;2023-03-01T02:16:10;27.80;;;13.80;;
77798;SDS011;66989;50.426;15.352;2023-03-01T02:18:38;25.75;;;14.43;;
77798;SDS011;66989;50.426;15.352;2023-03-01T02:24:10;26.40;;;12.65;;
77798;SDS011;66989;50.426;15.352;2023-03-01T02:26:50;23.85;;;12.85;;
77798;SDS011;66989;50.426;15.352;2023-03-01T02:29:18;26.02;;;13.63;;
77798;SDS011;66989;50.426;15.352;2023-03-01T02:31:44;22.80;;;11.48;;
77798;SDS011;66989;50.426;15.352;2023-03-01T02:34:20;22.23;;;11.25;;
77798;SDS011;66989;50.426;15.352;2023-03-01T02:36:48;21.60;;;10.55;;
77798;SDS011;66989;50.426;15.352;2023-03-01T02:39:22;25.45;;;13.15;;
77798;SDS011;66989;50.426;15.352;2023-03-01T02:41:51;25.88;;;11.55;;
77798;SDS011;66989;50.426;15.352;2023-03-01T02:44:19;23.60;;;11.55;;
77798;SDS011;66989;50.426;15.352;2023-03-01T02:46:51;23.42;;;11.50;;
77798;SDS011;66989;50.426;15.352;2023-03-01T02:51:56;21.58;;;11.02;;
77798;SDS011;66989;50.426;15.352;2023-03-01T02:54:34;21.05;;;10.57;;
77798;SDS011;66989;50.426;15.352;2023-03-01T02:57:05;18.83;;;9.10;;
77798;SDS011;66989;50.426;15.352;2023-03-01T02:59:32;19.02;;;9.73;;
77798;SDS011;66989;50.426;15.352;2023-03-01T03:02:04;26.40;;;11.68;;
77798;SDS011;66989;50.426;15.352;2023-03-01T03:04:30;19.48;;;10.45;;
77798;SDS011;66989;50.426;15.352;2023-03-01T03:06:55;18.10;;;10.40;;
77798;SDS011;66989;50.426;15.352;2023-03-01T03:09:21;13.00;;;7.95;;
77798;SDS011;66989;50.426;15.352;2023-03-01T03:11:46;21.87;;;11.37;;
77798;SDS011;66989;50.426;15.352;2023-03-01T03:14:13;21.67;;;10.65;;
77798;SDS011;66989;50.426;15.352;2023-03-01T03:16:41;21.92;;;10.70;;
77798;SDS011;66989;50.426;15.352;2023-03-01T03:19:11;23.77;;;11.52;;
77798;SDS011;66989;50.426;15.352;2023-03-01T03:21:37;17.70;;;10.13;;
77798;SDS011;66989;50.426;15.352;2023-03-01T03:24:03;18.73;;;10.32;;
77798;SDS011;66989;50.426;15.352;2023-03-01T03:26:30;17.73;;;9.43;;
77798;SDS011;66989;50.426;15.352;2023-03-01T03:28:55;19.95;;;9.55;;
77798;SDS011;66989;50.426;15.352;2023-03-01T03:31:21;17.95;;;9.23;;
77798;SDS011;66989;50.426;15.352;2023-03-01T03:33:47;20.98;;;9.60;;
77798;SDS011;66989;50.426;15.352;2023-03-01T03:36:16;18.58;;;9.93;;
77798;SDS011;66989;50.426;15.352;2023-03-01T03:38:44;13.52;;;7.22;;
77798;SDS011;66989;50.426;15.352;2023-03-01T03:41:10;15.57;;;6.90;;
77798;SDS011;66989;50.426;15.352;2023-03-01T03:43:37;15.07;;;7.97;;
77798;SDS011;66989;50.426;15.352;2023-03-01T03:46:05;20.20;;;10.82;;
77798;SDS011;66989;50.426;15.352;2023-03-01T03:48:32;17.85;;;9.73;;
77798;SDS011;66989;50.426;15.352;2023-03-01T03:50:59;16.27;;;8.32;;
77798;SDS011;66989;50.426;15.352;2023-03-01T03:53:25;19.10;;;10.35;;
77798;SDS011;66989;50.426;15.352;2023-03-01T03:55:52;21.27;;;11.63;;
77798;SDS011;66989;50.426;15.352;2023-03-01T03:58:18;16.73;;;8.00;;
77798;SDS011;66989;50.426;15.352;2023-03-01T04:00:45;22.75;;;10.07;;
77798;SDS011;66989;50.426;15.352;2023-03-01T04:05:39;19.02;;;8.95;;
77798;SDS011;66989;50.426;15.352;2023-03-01T04:08:05;17.35;;;8.43;;
77798;SDS011;66989;50.426;15.352;2023-03-01T04:10:56;17.27;;;9.75;;
77798;SDS011;66989;50.426;15.352;2023-03-01T04:13:21;18.63;;;9.93;;
77798;SDS011;66989;50.426;15.352;2023-03-01T04:15:48;19.63;;;11.75;;
77798;SDS011;66989;50.426;15.352;2023-03-01T04:18:15;14.85;;;9.45;;
77798;SDS011;66989;50.426;15.352;2023-03-01T04:23:11;14.95;;;7.80;;
77798;SDS011;66989;50.426;15.352;2023-03-01T04:28:24;23.45;;;9.32;;
77798;SDS011;66989;50.426;15.352;2023-03-01T04:30:51;22.50;;;10.93;;
77798;SDS011;66989;50.426;15.352;2023-03-01T04:33:17;21.20;;;11.93;;
77798;SDS011;66989;50.426;15.352;2023-03-01T04:35:43;16.13;;;8.35;;
77798;SDS011;66989;50.426;15.352;2023-03-01T04:38:08;17.73;;;9.02;;
77798;SDS011;66989;50.426;15.352;2023-03-01T04:40:34;21.45;;;11.73;;
77798;SDS011;66989;50.426;15.352;2023-03-01T04:43:00;16.75;;;7.85;;
77798;SDS011;66989;50.426;15.352;2023-03-01T04:45:26;13.38;;;7.95;;
77798;SDS011;66989;50.426;15.352;2023-03-01T04:47:52;15.95;;;7.88;;
77798;SDS011;66989;50.426;15.352;2023-03-01T04:50:19;18.00;;;8.57;;
77798;SDS011;66989;50.426;15.352;2023-03-01T04:52:48;12.38;;;7.15;;
77798;SDS011;66989;50.426;15.352;2023-03-01T04:55:14;17.75;;;8.38;;
77798;SDS011;66989;50.426;15.352;2023-03-01T04:57:40;18.90;;;9.02;;
77798;SDS011;66989;50.426;15.352;2023-03-01T05:00:06;21.67;;;10.60;;
77798;SDS011;66989;50.426;15.352;2023-03-01T05:02:55;18.73;;;10.38;;
77798;SDS011;66989;50.426;15.352;2023-03-01T05:07:50;26.15;;;12.05;;
77798;SDS011;66989;50.426;15.352;2023-03-01T05:10:17;18.33;;;9.20;;
77798;SDS011;66989;50.426;15.352;2023-03-01T05:12:42;19.85;;;9.70;;
77798;SDS011;66989;50.426;15.352;2023-03-01T05:15:07;16.88;;;8.85;;
77798;SDS011;66989;50.426;15.352;2023-03-01T05:17:33;17.58;;;9.77;;
77798;SDS011;66989;50.426;15.352;2023-03-01T05:19:59;27.90;;;13.38;;
77798;SDS011;66989;50.426;15.352;2023-03-01T05:22:25;29.88;;;17.33;;
77798;SDS011;66989;50.426;15.352;2023-03-01T05:24:51;22.73;;;11.98;;
77798;SDS011;66989;50.426;15.352;2023-03-01T05:27:17;25.30;;;14.88;;
77798;SDS011;66989;50.426;15.352;2023-03-01T05:29:42;20.90;;;11.37;;
77798;SDS011;66989;50.426;15.352;2023-03-01T05:32:08;16.43;;;8.93;;
77798;SDS011;66989;50.426;15.352;2023-03-01T05:34:35;21.27;;;11.68;;
77798;SDS011;66989;50.426;15.352;2023-03-01T05:37:01;22.90;;;11.20;;
77798;SDS011;66989;50.426;15.352;2023-03-01T05:39:28;23.80;;;12.38;;
77798;SDS011;66989;50.426;15.352;2023-03-01T05:41:56;18.67;;;10.50;;
77798;SDS011;66989;50.426;15.352;2023-03-01T05:44:23;17.20;;;8.48;;
77798;SDS011;66989;50.426;15.352;2023-03-01T05:46:49;16.05;;;8.43;;
77798;SDS011;66989;50.426;15.352;2023-03-01T05:49:15;20.98;;;10.60;;
77798;SDS011;66989;50.426;15.352;2023-03-01T05:51:41;19.58;;;10.68;;
77798;SDS011;66989;50.426;15.352;2023-03-01T05:54:08;18.55;;;9.38;;
77798;SDS011;66989;50.426;15.352;2023-03-01T05:56:36;13.88;;;8.70;;
77798;SDS011;66989;50.426;15.352;2023-03-01T05:59:02;16.98;;;7.93;;
77798;SDS011;66989;50.426;15.352;2023-03-01T06:01:29;15.10;;;7.97;;
77798;SDS011;66989;50.426;15.352;2023-03-01T06:03:55;17.80;;;10.02;;
77798;SDS011;66989;50.426;15.352;2023-03-01T06:06:21;13.32;;;6.43;;
77798;SDS011;66989;50.426;15.352;2023-03-01T06:08:47;21.85;;;10.65;;
77798;SDS011;66989;50.426;15.352;2023-03-01T06:11:12;24.20;;;11.63;;
77798;SDS011;66989;50.426;15.352;2023-03-01T06:13:38;22.40;;;10.80;;
77798;SDS011;66989;50.426;15.352;2023-03-01T06:16:04;19.58;;;8.98;;
77798;SDS011;66989;50.426;15.352;2023-03-01T06:18:33;24.48;;;12.50;;
77798;SDS011;66989;50.426;15.352;2023-03-01T06:20:58;21.52;;;11.13;;
77798;SDS011;66989;50.426;15.352;2023-03-01T06:23:24;25.13;;;13.45;;
77798;SDS011;66989;50.426;15.352;2023-03-01T06:25:50;20.77;;;10.35;;
77798;SDS011;66989;50.426;15.352;2023-03-01T06:28:15;23.02;;;13.20;;
77798;SDS011;66989;50.426;15.352;2023-03-01T06:30:41;20.90;;;11.50;;
77798;SDS011;66989;50.426;15.352;2023-03-01T06:33:06;23.75;;;13.00;;
77798;SDS011;66989;50.426;15.352;2023-03-01T06:35:38;22.52;;;12.20;;
77798;SDS011;66989;50.426;15.352;2023-03-01T06:38:03;22.38;;;13.07;;
77798;SDS011;66989;50.426;15.352;2023-03-01T06:40:30;27.02;;;12.77;;
77798;SDS011;66989;50.426;15.352;2023-03-01T06:42:56;20.75;;;12.73;;
77798;SDS011;66989;50.426;15.352;2023-03-01T06:45:22;20.33;;;10.32;;
77798;SDS011;66989;50.426;15.352;2023-03-01T06:47:48;20.70;;;11.80;;
77798;SDS011;66989;50.426;15.352;2023-03-01T06:50:14;20.23;;;11.02;;
77798;SDS011;66989;50.426;15.352;2023-03-01T06:52:40;21.45;;;10.82;;
77798;SDS011;66989;50.426;15.352;2023-03-01T06:55:05;19.27;;;11.55;;
77798;SDS011;66989;50.426;15.352;2023-03-01T06:57:31;17.35;;;9.07;;
77798;SDS011;66989;50.426;15.352;2023-03-01T06:59:57;20.98;;;11.90;;
77798;SDS011;66989;50.426;15.352;2023-03-01T07:02:22;19.10;;;11.57;;
77798;SDS011;66989;50.426;15.352;2023-03-01T07:04:51;21.33;;;11.93;;
77798;SDS011;66989;50.426;15.352;2023-03-01T07:07:17;21.35;;;12.10;;
77798;SDS011;66989;50.426;15.352;2023-03-01T07:09:44;17.63;;;10.38;;
77798;SDS011;66989;50.426;15.352;2023-03-01T07:12:10;18.77;;;11.82;;
77798;SDS011;66989;50.426;15.352;2023-03-01T07:14:39;17.50;;;11.52;;
77798;SDS011;66989;50.426;15.352;2023-03-01T07:17:05;19.88;;;12.15;;
77798;SDS011;66989;50.426;15.352;2023-03-01T07:19:30;18.65;;;11.13;;
77798;SDS011;66989;50.426;15.352;2023-03-01T07:22:11;17.87;;;11.10;;
77798;SDS011;66989;50.426;15.352;2023-03-01T07:24:36;17.35;;;10.00;;
77798;SDS011;66989;50.426;15.352;2023-03-01T07:27:03;16.08;;;9.90;;
77798;SDS011;66989;50.426;15.352;2023-03-01T07:29:29;17.40;;;11.05;;
77798;SDS011;66989;50.426;15.352;2023-03-01T07:31:54;15.02;;;9.45;;
77798;SDS011;66989;50.426;15.352;2023-03-01T07:34:20;16.67;;;11.10;;
77798;SDS011;66989;50.426;15.352;2023-03-01T07:36:45;15.35;;;10.05;;
77798;SDS011;66989;50.426;15.352;2023-03-01T07:39:11;17.05;;;11.10;;
77798;SDS011;66989;50.426;15.352;2023-03-01T07:41:37;18.92;;;11.60;;
77798;SDS011;66989;50.426;15.352;2023-03-01T07:44:03;18.40;;;12.20;;
77798;SDS011;66989;50.426;15.352;2023-03-01T07:46:28;18.30;;;11.82;;
77798;SDS011;66989;50.426;15.352;2023-03-01T07:48:55;21.25;;;14.13;;
77798;SDS011;66989;50.426;15.352;2023-03-01T07:51:20;18.88;;;13.73;;
77798;SDS011;66989;50.426;15.352;2023-03-01T07:53:46;20.55;;;13.05;;
77798;SDS011;66989;50.426;15.352;2023-03-01T07:56:13;23.15;;;14.13;;
77798;SDS011;66989;50.426;15.352;2023-03-01T07:58:41;25.00;;;17.00;;
77798;SDS011;66989;50.426;15.352;2023-03-01T08:01:08;20.85;;;17.08;;
77798;SDS011;66989;50.426;15.352;2023-03-01T08:03:35;22.33;;;14.77;;
77798;SDS011;66989;50.426;15.352;2023-03-01T08:06:04;18.45;;;12.85;;
77798;SDS011;66989;50.426;15.352;2023-03-01T08:08:35;15.38;;;11.10;;
77798;SDS011;66989;50.426;15.352;2023-03-01T08:11:02;15.73;;;11.23;;
77798;SDS011;66989;50.426;15.352;2023-03-01T08:13:30;13.32;;;9.15;;
77798;SDS011;66989;50.426;15.352;2023-03-01T08:16:02;15.75;;;10.40;;
77798;SDS011;66989;50.426;15.352;2023-03-01T08:18:28;15.35;;;11.80;;
77798;SDS011;66989;50.426;15.352;2023-03-01T08:20:54;15.45;;;10.00;;
77798;SDS011;66989;50.426;15.352;2023-03-01T08:23:19;19.80;;;13.32;;
77798;SDS011;66989;50.426;15.352;2023-03-01T08:25:44;22.60;;;14.83;;
77798;SDS011;66989;50.426;15.352;2023-03-01T08:28:10;19.83;;;15.27;;
77798;SDS011;66989;50.426;15.352;2023-03-01T08:30:36;17.15;;;11.77;;
77798;SDS011;66989;50.426;15.352;2023-03-01T08:33:04;16.30;;;11.35;;
77798;SDS011;66989;50.426;15.352;2023-03-01T08:35:31;15.27;;;10.63;;
77798;SDS011;66989;50.426;15.352;2023-03-01T08:37:56;15.27;;;11.13;;
77798;SDS011;66989;50.426;15.352;2023-03-01T08:40:22;15.10;;;11.32;;
77798;SDS011;66989;50.426;15.352;2023-03-01T08:42:47;16.85;;;11.65;;
77798;SDS011;66989;50.426;15.352;2023-03-01T08:45:12;13.67;;;10.73;;
77798;SDS011;66989;50.426;15.352;2023-03-01T08:47:39;16.45;;;11.77;;
77798;SDS011;66989;50.426;15.352;2023-03-01T08:50:04;16.35;;;11.73;;
77798;SDS011;66989;50.426;15.352;2023-03-01T08:52:31;16.73;;;12.10;;
77798;SDS011;66989;50.426;15.352;2023-03-01T08:54:57;18.15;;;11.57;;
77798;SDS011;66989;50.426;15.352;2023-03-01T08:57:22;13.82;;;10.80;;
77798;SDS011;66989;50.426;15.352;2023-03-01T08:59:48;16.52;;;11.75;;
77798;SDS011;66989;50.426;15.352;2023-03-01T09:02:14;17.90;;;12.95;;
77798;SDS011;66989;50.426;15.352;2023-03-01T09:04:41;15.50;;;11.85;;
77798;SDS011;66989;50.426;15.352;2023-03-01T09:07:09;15.43;;;12.10;;
77798;SDS011;66989;50.426;15.352;2023-03-01T09:09:34;16.33;;;11.50;;
77798;SDS011;66989;50.426;15.352;2023-03-01T09:12:00;15.40;;;11.38;;
77798;SDS011;66989;50.426;15.352;2023-03-01T09:14:26;14.55;;;10.88;;
77798;SDS011;66989;50.426;15.352;2023-03-01T09:16:52;14.07;;;10.95;;
77798;SDS011;66989;50.426;15.352;2023-03-01T09:19:17;14.20;;;9.48;;
77798;SDS011;66989;50.426;15.352;2023-03-01T09:21:43;16.73;;;10.15;;
77798;SDS011;66989;50.426;15.352;2023-03-01T09:24:18;14.98;;;10.50;;
77798;SDS011;66989;50.426;15.352;2023-03-01T09:26:45;13.57;;;9.65;;
77798;SDS011;66989;50.426;15.352;2023-03-01T09:29:12;12.95;;;9.88;;
77798;SDS011;66989;50.426;15.352;2023-03-01T09:31:39;13.88;;;10.70;;
77798;SDS011;66989;50.426;15.352;2023-03-01T09:34:04;14.63;;;10.90;;
77798;SDS011;66989;50.426;15.352;2023-03-01T09:36:31;14.90;;;11.77;;
77798;SDS011;66989;50.426;15.352;2023-03-01T09:38:57;15.27;;;12.48;;
77798;SDS011;66989;50.426;15.352;2023-03-01T09:47:00;14.15;;;11.60;;
77798;SDS011;66989;50.426;15.352;2023-03-01T09:49:30;14.95;;;12.10;;
77798;SDS011;66989;50.426;15.352;2023-03-01T09:54:36;15.95;;;11.23;;
77798;SDS011;66989;50.426;15.352;2023-03-01T09:57:06;17.10;;;12.90;;
77798;SDS011;66989;50.426;15.352;2023-03-01T10:04:48;13.50;;;10.80;;
77798;SDS011;66989;50.426;15.352;2023-03-01T10:10:06;15.57;;;11.63;;
77798;SDS011;66989;50.426;15.352;2023-03-01T10:12:34;18.10;;;12.00;;
77798;SDS011;66989;50.426;15.352;2023-03-01T10:17:37;18.97;;;12.20;;
77798;SDS011;66989;50.426;15.352;2023-03-01T10:20:22;15.70;;;12.60;;
77798;SDS011;66989;50.426;15.352;2023-03-01T10:22:54;25.10;;;16.27;;
77798;SDS011;66989;50.426;15.352;2023-03-01T10:25:36;15.20;;;11.77;;
77798;SDS011;66989;50.426;15.352;2023-03-01T10:31:12;16.80;;;12.00;;
77798;SDS011;66989;50.426;15.352;2023-03-01T10:33:39;16.27;;;11.25;;
77798;SDS011;66989;50.426;15.352;2023-03-01T10:36:06;15.73;;;11.00;;
77798;SDS011;66989;50.426;15.352;2023-03-01T10:38:46;15.85;;;12.02;;
77798;SDS011;66989;50.426;15.352;2023-03-01T10:41:20;14.50;;;11.57;;
77798;SDS011;66989;50.426;15.352;2023-03-01T10:43:52;13.98;;;11.52;;
77798;SDS011;66989;50.426;15.352;2023-03-01T10:46:30;17.52;;;12.85;;
77798;SDS011;66989;50.426;15.352;2023-03-01T10:49:16;17.50;;;13.80;;
77798;SDS011;66989;50.426;15.352;2023-03-01T10:51:48;15.70;;;12.52;;
77798;SDS011;66989;50.426;15.352;2023-03-01T10:54:25;16.98;;;13.27;;
77798;SDS011;66989;50.426;15.352;2023-03-01T10:57:02;17.40;;;12.27;;
77798;SDS011;66989;50.426;15.352;2023-03-01T10:59:35;16.08;;;12.68;;
77798;SDS011;66989;50.426;15.352;2023-03-01T11:10:28;18.45;;;11.95;;
77798;SDS011;66989;50.426;15.352;2023-03-01T11:16:07;15.32;;;10.77;;
77798;SDS011;66989;50.426;15.352;2023-03-01T11:18:37;15.25;;;12.63;;
77798;SDS011;66989;50.426;15.352;2023-03-01T11:21:02;15.40;;;11.70;;
77798;SDS011;66989;50.426;15.352;2023-03-01T11:23:29;14.80;;;12.02;;
77798;SDS011;66989;50.426;15.352;2023-03-01T11:25:57;17.92;;;11.65;;
77798;SDS011;66989;50.426;15.352;2023-03-01T11:28:29;15.00;;;11.63;;
77798;SDS011;66989;50.426;15.352;2023-03-01T11:31:08;14.88;;;11.10;;
77798;SDS011;66989;50.426;15.352;2023-03-01T11:33:57;13.57;;;11.50;;
77798;SDS011;66989;50.426;15.352;2023-03-01T11:36:39;15.05;;;11.68;;
77798;SDS011;66989;50.426;15.352;2023-03-01T11:42:05;13.45;;;10.65;;
77798;SDS011;66989;50.426;15.352;2023-03-01T11:44:38;15.68;;;10.95;;
77798;SDS011;66989;50.426;15.352;2023-03-01T11:53:01;13.63;;;12.20;;
77798;SDS011;66989;50.426;15.352;2023-03-01T11:58:38;12.70;;;11.40;;
77798;SDS011;66989;50.426;15.352;2023-03-01T12:01:32;15.05;;;12.43;;
77798;SDS011;66989;50.426;15.352;2023-03-01T12:04:50;13.82;;;12.07;;
77798;SDS011;66989;50.426;15.352;2023-03-01T12:10:20;18.48;;;16.63;;
77798;SDS011;66989;50.426;15.352;2023-03-01T12:26:56;16.10;;;12.70;;
77798;SDS011;66989;50.426;15.352;2023-03-01T12:29:38;20.33;;;14.98;;
77798;SDS011;66989;50.426;15.352;2023-03-01T12:44:19;14.27;;;12.10;;
77798;SDS011;66989;50.426;15.352;2023-03-01T12:50:00;12.77;;;10.02;;
77798;SDS011;66989;50.426;15.352;2023-03-01T12:55:37;13.75;;;11.88;;
77798;SDS011;66989;50.426;15.352;2023-03-01T13:03:56;11.95;;;9.25;;
77798;SDS011;66989;50.426;15.352;2023-03-01T13:11:42;13.25;;;11.07;;
77798;SDS011;66989;50.426;15.352;2023-03-01T13:16:51;13.80;;;10.77;;
77798;SDS011;66989;50.426;15.352;2023-03-01T13:19:18;23.50;;;19.88;;
77798;SDS011;66989;50.426;15.352;2023-03-01T13:21:49;13.27;;;11.15;;
77798;SDS011;66989;50.426;15.352;2023-03-01T13:29:45;12.48;;;10.02;;
77798;SDS011;66989;50.426;15.352;2023-03-01T13:34:46;14.57;;;10.65;;
77798;SDS011;66989;50.426;15.352;2023-03-01T13:37:20;13.55;;;11.18;;
77798;SDS011;66989;50.426;15.352;2023-03-01T13:39:55;12.77;;;10.25;;
77798;SDS011;66989;50.426;15.352;2023-03-01T13:42:39;13.48;;;10.73;;
77798;SDS011;66989;50.426;15.352;2023-03-01T13:45:24;14.68;;;9.50;;
77798;SDS011;66989;50.426;15.352;2023-03-01T13:48:08;13.52;;;10.73;;
77798;SDS011;66989;50.426;15.352;2023-03-01T13:50:45;12.40;;;10.18;;
77798;SDS011;66989;50.426;15.352;2023-03-01T13:53:23;11.82;;;9.55;;
77798;SDS011;66989;50.426;15.352;2023-03-01T13:55:52;14.40;;;10.13;;
77798;SDS011;66989;50.426;15.352;2023-03-01T14:00:57;11.02;;;8.32;;
77798;SDS011;66989;50.426;15.352;2023-03-01T14:03:24;11.70;;;9.32;;
77798;SDS011;66989;50.426;15.352;2023-03-01T14:08:27;15.25;;;9.98;;
77798;SDS011;66989;50.426;15.352;2023-03-01T14:19:37;11.95;;;8.57;;
77798;SDS011;66989;50.426;15.352;2023-03-01T14:24:50;12.57;;;9.38;;
77798;SDS011;66989;50.426;15.352;2023-03-01T14:27:19;13.07;;;9.05;;
77798;SDS011;66989;50.426;15.352;2023-03-01T14:29:53;13.77;;;10.75;;
77798;SDS011;66989;50.426;15.352;2023-03-01T14:32:23;18.15;;;11.57;;
77798;SDS011;66989;50.426;15.352;2023-03-01T14:34:51;13.40;;;9.38;;
77798;SDS011;66989;50.426;15.352;2023-03-01T14:37:18;13.60;;;10.00;;
77798;SDS011;66989;50.426;15.352;2023-03-01T14:39:46;12.32;;;9.27;;
77798;SDS011;66989;50.426;15.352;2023-03-01T14:42:13;13.55;;;10.00;;
77798;SDS011;66989;50.426;15.352;2023-03-01T14:47:10;15.38;;;9.43;;
77798;SDS011;66989;50.426;15.352;2023-03-01T14:49:39;13.35;;;9.02;;
77798;SDS011;66989;50.426;15.352;2023-03-01T14:54:49;11.88;;;8.18;;
77798;SDS011;66989;50.426;15.352;2023-03-01T14:57:22;12.77;;;8.55;;
77798;SDS011;66989;50.426;15.352;2023-03-01T14:59:52;14.00;;;9.63;;
77798;SDS011;66989;50.426;15.352;2023-03-01T15:02:21;17.65;;;11.40;;
77798;SDS011;66989;50.426;15.352;2023-03-01T15:04:49;16.40;;;10.18;;
77798;SDS011;66989;50.426;15.352;2023-03-01T15:07:18;17.67;;;10.75;;
77798;SDS011;66989;50.426;15.352;2023-03-01T15:09:44;15.07;;;9.65;;
77798;SDS011;66989;50.426;15.352;2023-03-01T15:14:54;13.07;;;8.43;;
77798;SDS011;66989;50.426;15.352;2023-03-01T15:19:45;16.60;;;10.87;;
77798;SDS011;66989;50.426;15.352;2023-03-01T15:22:14;16.60;;;10.82;;
77798;SDS011;66989;50.426;15.352;2023-03-01T15:24:41;16.08;;;10.77;;
77798;SDS011;66989;50.426;15.352;2023-03-01T15:27:15;13.98;;;11.10;;
77798;SDS011;66989;50.426;15.352;2023-03-01T15:29:48;17.27;;;9.82;;
77798;SDS011;66989;50.426;15.352;2023-03-01T15:32:26;14.95;;;9.55;;
77798;SDS011;66989;50.426;15.352;2023-03-01T15:35:00;15.75;;;8.88;;
77798;SDS011;66989;50.426;15.352;2023-03-01T15:41:22;15.05;;;9.60;;
77798;SDS011;66989;50.426;15.352;2023-03-01T15:43:49;37.55;;;17.05;;
77798;SDS011;66989;50.426;15.352;2023-03-01T15:46:20;21.88;;;12.07;;
77798;SDS011;66989;50.426;15.352;2023-03-01T15:48:50;54.95;;;23.35;;
77798;SDS011;66989;50.426;15.352;2023-03-01T15:51:31;46.55;;;25.88;;
77798;SDS011;66989;50.426;15.352;2023-03-01T15:56:42;29.73;;;14.45;;
77798;SDS011;66989;50.426;15.352;2023-03-01T16:01:37;24.35;;;12.23;;
77798;SDS011;66989;50.426;15.352;2023-03-01T16:04:02;21.27;;;11.57;;
77798;SDS011;66989;50.426;15.352;2023-03-01T16:06:27;20.63;;;11.75;;
77798;SDS011;66989;50.426;15.352;2023-03-01T16:08:53;21.42;;;11.55;;
77798;SDS011;66989;50.426;15.352;2023-03-01T16:11:19;20.08;;;10.75;;
77798;SDS011;66989;50.426;15.352;2023-03-01T16:13:45;20.45;;;11.65;;
77798;SDS011;66989;50.426;15.352;2023-03-01T16:16:12;20.70;;;12.43;;
77798;SDS011;66989;50.426;15.352;2023-03-01T16:18:41;20.80;;;11.23;;
77798;SDS011;66989;50.426;15.352;2023-03-01T16:21:11;19.45;;;11.13;;
77798;SDS011;66989;50.426;15.352;2023-03-01T16:23:38;23.08;;;12.25;;
77798;SDS011;66989;50.426;15.352;2023-03-01T16:26:03;21.27;;;11.32;;
77798;SDS011;66989;50.426;15.352;2023-03-01T16:28:29;24.85;;;12.48;;
77798;SDS011;66989;50.426;15.352;2023-03-01T16:30:54;25.52;;;13.00;;
77798;SDS011;66989;50.426;15.352;2023-03-01T16:33:19;25.05;;;12.32;;
77798;SDS011;66989;50.426;15.352;2023-03-01T16:35:45;21.95;;;10.25;;
77798;SDS011;66989;50.426;15.352;2023-03-01T16:38:10;19.35;;;10.45;;
77798;SDS011;66989;50.426;15.352;2023-03-01T16:40:36;21.30;;;10.73;;
77798;SDS011;66989;50.426;15.352;2023-03-01T16:43:05;24.65;;;12.15;;
77798;SDS011;66989;50.426;15.352;2023-03-01T16:45:33;21.63;;;11.32;;
77798;SDS011;66989;50.426;15.352;2023-03-01T16:48:04;19.90;;;11.07;;
77798;SDS011;66989;50.426;15.352;2023-03-01T16:50:30;19.35;;;10.65;;
77798;SDS011;66989;50.426;15.352;2023-03-01T16:52:58;24.42;;;11.25;;
77798;SDS011;66989;50.426;15.352;2023-03-01T16:55:23;24.17;;;12.57;;
77798;SDS011;66989;50.426;15.352;2023-03-01T16:57:49;29.83;;;12.32;;